sensor_id;sensor_type;location;lat;lon;timestamp;P1;durP1;ratioP1;P2;durP2;ratioP2
16975;SDS011;8604;48.148;-1.786;2023-02-01T00:00:08;15.77;;;4.00;;
16975;SDS011;8604;48.148;-1.786;2023-02-01T00:02:39;19.20;;;4.60;;
16975;SDS011;8604;48.148;-1.786;2023-02-01T00:05:10;14.67;;;4.00;;
16975;SDS011;8604;48.148;-1.786;2023-02-01T00:07:46;15.60;;;3.93;;
16975;SDS011;8604;48.148;-1.786;2023-02-01T00:10:15;14.97;;;3.67;;
16975;SDS011;8604;48.148;-1.786;2023-02-01T00:12:44;14.73;;;3.53;;
16975;SDS011;8604;48.148;-1.786;2023-02-01T00:15:12;17.83;;;4.57;;
16975;SDS011;8604;48.148;-1.786;2023-02-01T00:17:43;14.87;;;4.30;;
16975;SDS011;8604;48.148;-1.786;2023-02-01T00:20:12;20.13;;;4.70;;
16975;SDS011;8604;48.148;-1.786;2023-02-01T00:22:44;13.50;;;4.20;;
16975;SDS011;8604;48.148;-1.786;2023-02-01T00:25:13;12.43;;;3.60;;
16975;SDS011;8604;48.148;-1.786;2023-02-01T00:27:41;15.53;;;4.10;;
16975;SDS011;8604;48.148;-1.786;2023-02-01T00:30:11;14.73;;;4.03;;
16975;SDS011;8604;48.148;-1.786;2023-02-01T00:32:40;15.73;;;3.93;;
16975;SDS011;8604;48.148;-1.786;2023-02-01T00:35:10;16.43;;;4.30;;
16975;SDS011;8604;48.148;-1.786;2023-02-01T00:37:39;15.70;;;4.30;;
16975;SDS011;8604;48.148;-1.786;2023-02-01T00:40:12;21.03;;;4.90;;
16975;SDS011;8604;48.148;-1.786;2023-02-01T00:42:43;20.33;;;5.17;;
16975;SDS011;8604;48.148;-1.786;2023-02-01T00:45:12;18.47;;;4.80;;
16975;SDS011;8604;48.148;-1.786;2023-02-01T00:47:40;17.60;;;4.77;;
16975;SDS011;8604;48.148;-1.786;2023-02-01T00:50:11;19.57;;;4.63;;
16975;SDS011;8604;48.148;-1.786;2023-02-01T00:52:39;18.27;;;4.77;;
16975;SDS011;8604;48.148;-1.786;2023-02-01T00:55:08;12.93;;;3.80;;
16975;SDS011;8604;48.148;-1.786;2023-02-01T00:57:38;15.07;;;4.37;;
16975;SDS011;8604;48.148;-1.786;2023-02-01T01:00:07;12.53;;;3.70;;
16975;SDS011;8604;48.148;-1.786;2023-02-01T01:02:36;15.60;;;4.23;;
16975;SDS011;8604;48.148;-1.786;2023-02-01T01:05:05;16.37;;;4.20;;
16975;SDS011;8604;48.148;-1.786;2023-02-01T01:07:34;13.07;;;3.77;;
16975;SDS011;8604;48.148;-1.786;2023-02-01T01:10:02;12.00;;;3.80;;
16975;SDS011;8604;48.148;-1.786;2023-02-01T01:12:31;12.20;;;4.27;;
16975;SDS011;8604;48.148;-1.786;2023-02-01T01:15:02;16.67;;;4.40;;
16975;SDS011;8604;48.148;-1.786;2023-02-01T01:17:31;19.17;;;4.73;;
16975;SDS011;8604;48.148;-1.786;2023-02-01T01:20:00;15.10;;;4.30;;
16975;SDS011;8604;48.148;-1.786;2023-02-01T01:22:28;16.07;;;4.50;;
16975;SDS011;8604;48.148;-1.786;2023-02-01T01:24:57;16.77;;;4.30;;
16975;SDS011;8604;48.148;-1.786;2023-02-01T01:27:26;14.97;;;3.80;;
16975;SDS011;8604;48.148;-1.786;2023-02-01T01:29:54;16.97;;;4.10;;
16975;SDS011;8604;48.148;-1.786;2023-02-01T01:32:24;15.37;;;3.77;;
16975;SDS011;8604;48.148;-1.786;2023-02-01T01:34:53;11.30;;;3.57;;
16975;SDS011;8604;48.148;-1.786;2023-02-01T01:37:21;20.40;;;4.47;;
16975;SDS011;8604;48.148;-1.786;2023-02-01T01:39:50;15.20;;;4.53;;
16975;SDS011;8604;48.148;-1.786;2023-02-01T01:42:18;21.50;;;4.27;;
16975;SDS011;8604;48.148;-1.786;2023-02-01T01:44:56;18.67;;;4.53;;
16975;SDS011;8604;48.148;-1.786;2023-02-01T01:47:31;18.63;;;4.10;;
16975;SDS011;8604;48.148;-1.786;2023-02-01T01:50:04;19.33;;;4.00;;
16975;SDS011;8604;48.148;-1.786;2023-02-01T01:52:35;18.00;;;4.57;;
16975;SDS011;8604;48.148;-1.786;2023-02-01T01:55:05;17.20;;;4.13;;
16975;SDS011;8604;48.148;-1.786;2023-02-01T01:57:35;15.97;;;4.10;;
16975;SDS011;8604;48.148;-1.786;2023-02-01T02:00:07;15.33;;;4.13;;
16975;SDS011;8604;48.148;-1.786;2023-02-01T02:02:44;22.90;;;5.00;;
16975;SDS011;8604;48.148;-1.786;2023-02-01T02:05:20;17.57;;;4.97;;
16975;SDS011;8604;48.148;-1.786;2023-02-01T02:07:49;16.37;;;3.80;;
16975;SDS011;8604;48.148;-1.786;2023-02-01T02:10:20;16.13;;;4.07;;
16975;SDS011;8604;48.148;-1.786;2023-02-01T02:13:09;16.27;;;3.70;;
16975;SDS011;8604;48.148;-1.786;2023-02-01T02:15:39;22.50;;;4.77;;
16975;SDS011;8604;48.148;-1.786;2023-02-01T02:18:15;16.93;;;3.97;;
16975;SDS011;8604;48.148;-1.786;2023-02-01T02:24:02;17.43;;;3.97;;
16975;SDS011;8604;48.148;-1.786;2023-02-01T02:26:52;14.33;;;4.00;;
16975;SDS011;8604;48.148;-1.786;2023-02-01T02:30:09;16.00;;;4.10;;
16975;SDS011;8604;48.148;-1.786;2023-02-01T02:36:04;15.40;;;3.87;;
16975;SDS011;8604;48.148;-1.786;2023-02-01T02:38:40;15.03;;;4.17;;
16975;SDS011;8604;48.148;-1.786;2023-02-01T02:41:15;13.10;;;3.37;;
16975;SDS011;8604;48.148;-1.786;2023-02-01T02:44:02;12.80;;;3.53;;
16975;SDS011;8604;48.148;-1.786;2023-02-01T02:46:59;17.83;;;3.97;;
16975;SDS011;8604;48.148;-1.786;2023-02-01T02:49:56;14.93;;;4.07;;
16975;SDS011;8604;48.148;-1.786;2023-02-01T02:52:57;15.27;;;3.73;;
16975;SDS011;8604;48.148;-1.786;2023-02-01T02:55:49;14.70;;;3.53;;
16975;SDS011;8604;48.148;-1.786;2023-02-01T02:58:29;18.13;;;4.27;;
16975;SDS011;8604;48.148;-1.786;2023-02-01T03:01:15;14.17;;;3.80;;
16975;SDS011;8604;48.148;-1.786;2023-02-01T03:04:01;16.17;;;3.80;;
16975;SDS011;8604;48.148;-1.786;2023-02-01T03:06:39;16.27;;;4.40;;
16975;SDS011;8604;48.148;-1.786;2023-02-01T03:09:09;15.83;;;4.40;;
16975;SDS011;8604;48.148;-1.786;2023-02-01T03:11:41;17.07;;;3.80;;
16975;SDS011;8604;48.148;-1.786;2023-02-01T03:14:31;16.77;;;3.73;;
16975;SDS011;8604;48.148;-1.786;2023-02-01T03:17:04;19.17;;;3.83;;
16975;SDS011;8604;48.148;-1.786;2023-02-01T03:19:39;18.23;;;3.87;;
16975;SDS011;8604;48.148;-1.786;2023-02-01T03:22:16;17.17;;;3.80;;
16975;SDS011;8604;48.148;-1.786;2023-02-01T03:24:49;18.77;;;3.93;;
16975;SDS011;8604;48.148;-1.786;2023-02-01T03:27:23;15.40;;;3.97;;
16975;SDS011;8604;48.148;-1.786;2023-02-01T03:29:56;18.13;;;4.00;;
16975;SDS011;8604;48.148;-1.786;2023-02-01T03:32:29;18.17;;;4.00;;
16975;SDS011;8604;48.148;-1.786;2023-02-01T03:35:18;14.83;;;3.77;;
16975;SDS011;8604;48.148;-1.786;2023-02-01T03:37:59;19.10;;;3.63;;
16975;SDS011;8604;48.148;-1.786;2023-02-01T03:40:34;14.40;;;4.03;;
16975;SDS011;8604;48.148;-1.786;2023-02-01T03:43:05;13.30;;;3.50;;
16975;SDS011;8604;48.148;-1.786;2023-02-01T03:45:41;13.47;;;3.73;;
16975;SDS011;8604;48.148;-1.786;2023-02-01T03:48:13;17.90;;;3.97;;
16975;SDS011;8604;48.148;-1.786;2023-02-01T03:50:44;16.40;;;3.87;;
16975;SDS011;8604;48.148;-1.786;2023-02-01T03:53:17;15.87;;;4.07;;
16975;SDS011;8604;48.148;-1.786;2023-02-01T03:55:50;14.03;;;3.73;;
16975;SDS011;8604;48.148;-1.786;2023-02-01T03:58:22;17.63;;;4.00;;
16975;SDS011;8604;48.148;-1.786;2023-02-01T04:00:54;19.83;;;3.80;;
16975;SDS011;8604;48.148;-1.786;2023-02-01T04:06:35;16.03;;;3.83;;
16975;SDS011;8604;48.148;-1.786;2023-02-01T04:09:06;14.63;;;3.87;;
16975;SDS011;8604;48.148;-1.786;2023-02-01T04:11:34;20.33;;;4.50;;
16975;SDS011;8604;48.148;-1.786;2023-02-01T04:14:03;13.70;;;3.70;;
16975;SDS011;8604;48.148;-1.786;2023-02-01T04:16:31;15.73;;;3.60;;
16975;SDS011;8604;48.148;-1.786;2023-02-01T04:19:00;15.47;;;3.70;;
16975;SDS011;8604;48.148;-1.786;2023-02-01T04:21:29;15.37;;;3.63;;
16975;SDS011;8604;48.148;-1.786;2023-02-01T04:23:57;13.70;;;3.70;;
16975;SDS011;8604;48.148;-1.786;2023-02-01T04:26:27;13.10;;;3.40;;
16975;SDS011;8604;48.148;-1.786;2023-02-01T04:28:56;17.73;;;4.30;;
16975;SDS011;8604;48.148;-1.786;2023-02-01T04:31:24;15.67;;;4.50;;
16975;SDS011;8604;48.148;-1.786;2023-02-01T04:33:54;14.17;;;3.70;;
16975;SDS011;8604;48.148;-1.786;2023-02-01T04:36:24;16.07;;;3.80;;
16975;SDS011;8604;48.148;-1.786;2023-02-01T04:38:52;13.73;;;3.57;;
16975;SDS011;8604;48.148;-1.786;2023-02-01T04:41:21;14.67;;;3.47;;
16975;SDS011;8604;48.148;-1.786;2023-02-01T04:43:51;15.30;;;3.93;;
16975;SDS011;8604;48.148;-1.786;2023-02-01T04:46:19;16.23;;;4.53;;
16975;SDS011;8604;48.148;-1.786;2023-02-01T04:48:48;16.37;;;4.20;;
16975;SDS011;8604;48.148;-1.786;2023-02-01T04:51:16;16.63;;;4.10;;
16975;SDS011;8604;48.148;-1.786;2023-02-01T04:53:45;13.97;;;3.73;;
16975;SDS011;8604;48.148;-1.786;2023-02-01T04:56:13;15.63;;;3.87;;
16975;SDS011;8604;48.148;-1.786;2023-02-01T04:58:42;18.03;;;4.10;;
16975;SDS011;8604;48.148;-1.786;2023-02-01T05:01:11;15.37;;;4.27;;
16975;SDS011;8604;48.148;-1.786;2023-02-01T05:03:40;12.83;;;3.43;;
16975;SDS011;8604;48.148;-1.786;2023-02-01T05:06:08;14.53;;;3.50;;
16975;SDS011;8604;48.148;-1.786;2023-02-01T05:08:37;21.83;;;4.23;;
16975;SDS011;8604;48.148;-1.786;2023-02-01T05:11:05;16.70;;;3.93;;
16975;SDS011;8604;48.148;-1.786;2023-02-01T05:13:54;13.90;;;3.60;;
16975;SDS011;8604;48.148;-1.786;2023-02-01T05:16:22;15.47;;;3.70;;
16975;SDS011;8604;48.148;-1.786;2023-02-01T05:18:51;13.10;;;3.70;;
16975;SDS011;8604;48.148;-1.786;2023-02-01T05:21:20;11.07;;;3.17;;
16975;SDS011;8604;48.148;-1.786;2023-02-01T05:23:48;15.93;;;4.17;;
16975;SDS011;8604;48.148;-1.786;2023-02-01T05:26:34;13.57;;;3.33;;
16975;SDS011;8604;48.148;-1.786;2023-02-01T05:29:03;13.67;;;3.67;;
16975;SDS011;8604;48.148;-1.786;2023-02-01T05:31:32;16.77;;;3.57;;
16975;SDS011;8604;48.148;-1.786;2023-02-01T05:34:01;14.60;;;3.80;;
16975;SDS011;8604;48.148;-1.786;2023-02-01T05:36:29;18.90;;;4.20;;
16975;SDS011;8604;48.148;-1.786;2023-02-01T05:38:58;18.10;;;4.57;;
16975;SDS011;8604;48.148;-1.786;2023-02-01T05:41:26;16.23;;;3.70;;
16975;SDS011;8604;48.148;-1.786;2023-02-01T05:43:55;15.53;;;3.83;;
16975;SDS011;8604;48.148;-1.786;2023-02-01T05:46:23;13.70;;;3.33;;
16975;SDS011;8604;48.148;-1.786;2023-02-01T05:48:53;13.10;;;3.50;;
16975;SDS011;8604;48.148;-1.786;2023-02-01T05:51:21;18.00;;;4.03;;
16975;SDS011;8604;48.148;-1.786;2023-02-01T05:53:49;15.07;;;4.30;;
16975;SDS011;8604;48.148;-1.786;2023-02-01T05:56:18;15.93;;;3.67;;
16975;SDS011;8604;48.148;-1.786;2023-02-01T05:58:46;16.50;;;3.97;;
16975;SDS011;8604;48.148;-1.786;2023-02-01T06:01:14;18.17;;;4.00;;
16975;SDS011;8604;48.148;-1.786;2023-02-01T06:03:43;15.10;;;3.80;;
16975;SDS011;8604;48.148;-1.786;2023-02-01T06:06:13;16.33;;;4.00;;
16975;SDS011;8604;48.148;-1.786;2023-02-01T06:08:41;19.30;;;4.27;;
16975;SDS011;8604;48.148;-1.786;2023-02-01T06:11:09;19.77;;;4.43;;
16975;SDS011;8604;48.148;-1.786;2023-02-01T06:13:57;16.43;;;4.63;;
16975;SDS011;8604;48.148;-1.786;2023-02-01T06:16:25;23.17;;;5.03;;
16975;SDS011;8604;48.148;-1.786;2023-02-01T06:18:54;18.13;;;3.93;;
16975;SDS011;8604;48.148;-1.786;2023-02-01T06:21:23;21.77;;;4.67;;
16975;SDS011;8604;48.148;-1.786;2023-02-01T06:23:52;25.60;;;4.87;;
16975;SDS011;8604;48.148;-1.786;2023-02-01T06:26:24;18.13;;;4.33;;
16975;SDS011;8604;48.148;-1.786;2023-02-01T06:28:52;17.93;;;4.23;;
16975;SDS011;8604;48.148;-1.786;2023-02-01T06:31:21;17.33;;;4.07;;
16975;SDS011;8604;48.148;-1.786;2023-02-01T06:33:51;15.73;;;4.50;;
16975;SDS011;8604;48.148;-1.786;2023-02-01T06:36:20;11.30;;;3.73;;
16975;SDS011;8604;48.148;-1.786;2023-02-01T06:38:50;16.50;;;4.23;;
16975;SDS011;8604;48.148;-1.786;2023-02-01T06:41:18;20.10;;;4.33;;
16975;SDS011;8604;48.148;-1.786;2023-02-01T06:43:48;15.43;;;3.93;;
16975;SDS011;8604;48.148;-1.786;2023-02-01T06:50:30;20.63;;;4.40;;
16975;SDS011;8604;48.148;-1.786;2023-02-01T06:53:23;19.17;;;4.20;;
16975;SDS011;8604;48.148;-1.786;2023-02-01T06:56:03;14.93;;;3.87;;
16975;SDS011;8604;48.148;-1.786;2023-02-01T06:58:56;18.23;;;4.83;;
16975;SDS011;8604;48.148;-1.786;2023-02-01T07:02:00;18.70;;;4.73;;
16975;SDS011;8604;48.148;-1.786;2023-02-01T07:05:11;17.27;;;4.40;;
16975;SDS011;8604;48.148;-1.786;2023-02-01T07:07:53;16.07;;;4.23;;
16975;SDS011;8604;48.148;-1.786;2023-02-01T07:11:14;15.93;;;3.83;;
16975;SDS011;8604;48.148;-1.786;2023-02-01T07:14:11;14.93;;;3.93;;
16975;SDS011;8604;48.148;-1.786;2023-02-01T07:16:55;15.63;;;4.33;;
16975;SDS011;8604;48.148;-1.786;2023-02-01T07:20:41;17.60;;;4.13;;
16975;SDS011;8604;48.148;-1.786;2023-02-01T07:22:56;14.67;;;3.73;;
16975;SDS011;8604;48.148;-1.786;2023-02-01T07:25:42;17.87;;;4.43;;
16975;SDS011;8604;48.148;-1.786;2023-02-01T07:28:14;19.43;;;4.77;;
16975;SDS011;8604;48.148;-1.786;2023-02-01T07:31:06;18.53;;;4.33;;
16975;SDS011;8604;48.148;-1.786;2023-02-01T07:33:54;18.00;;;4.17;;
16975;SDS011;8604;48.148;-1.786;2023-02-01T07:37:15;20.97;;;5.00;;
16975;SDS011;8604;48.148;-1.786;2023-02-01T07:40:06;14.10;;;3.93;;
16975;SDS011;8604;48.148;-1.786;2023-02-01T07:43:50;16.97;;;4.20;;
16975;SDS011;8604;48.148;-1.786;2023-02-01T07:46:37;16.23;;;4.23;;
16975;SDS011;8604;48.148;-1.786;2023-02-01T07:49:26;13.63;;;3.67;;
16975;SDS011;8604;48.148;-1.786;2023-02-01T07:51:54;18.07;;;4.10;;
16975;SDS011;8604;48.148;-1.786;2023-02-01T07:54:23;13.60;;;3.63;;
16975;SDS011;8604;48.148;-1.786;2023-02-01T07:56:52;11.13;;;3.50;;
16975;SDS011;8604;48.148;-1.786;2023-02-01T07:59:22;16.13;;;4.13;;
16975;SDS011;8604;48.148;-1.786;2023-02-01T08:01:50;19.27;;;4.27;;
16975;SDS011;8604;48.148;-1.786;2023-02-01T08:04:18;13.67;;;3.90;;
16975;SDS011;8604;48.148;-1.786;2023-02-01T08:06:47;11.40;;;3.90;;
16975;SDS011;8604;48.148;-1.786;2023-02-01T08:09:15;12.80;;;3.67;;
16975;SDS011;8604;48.148;-1.786;2023-02-01T08:11:44;15.37;;;4.00;;
16975;SDS011;8604;48.148;-1.786;2023-02-01T08:14:14;15.37;;;3.97;;
16975;SDS011;8604;48.148;-1.786;2023-02-01T08:16:44;12.10;;;4.17;;
16975;SDS011;8604;48.148;-1.786;2023-02-01T08:19:27;14.37;;;4.00;;
16975;SDS011;8604;48.148;-1.786;2023-02-01T08:22:12;12.10;;;3.93;;
16975;SDS011;8604;48.148;-1.786;2023-02-01T08:28:01;17.30;;;4.43;;
16975;SDS011;8604;48.148;-1.786;2023-02-01T08:30:30;16.20;;;4.10;;
16975;SDS011;8604;48.148;-1.786;2023-02-01T08:32:59;14.03;;;4.20;;
16975;SDS011;8604;48.148;-1.786;2023-02-01T08:35:29;20.13;;;4.40;;
16975;SDS011;8604;48.148;-1.786;2023-02-01T08:38:09;19.07;;;4.60;;
16975;SDS011;8604;48.148;-1.786;2023-02-01T08:40:38;13.40;;;4.33;;
16975;SDS011;8604;48.148;-1.786;2023-02-01T08:43:08;14.53;;;3.90;;
16975;SDS011;8604;48.148;-1.786;2023-02-01T08:45:36;19.37;;;4.63;;
16975;SDS011;8604;48.148;-1.786;2023-02-01T08:48:06;17.50;;;4.63;;
16975;SDS011;8604;48.148;-1.786;2023-02-01T08:50:35;16.80;;;4.40;;
16975;SDS011;8604;48.148;-1.786;2023-02-01T08:53:03;20.87;;;5.23;;
16975;SDS011;8604;48.148;-1.786;2023-02-01T08:55:32;13.63;;;4.17;;
16975;SDS011;8604;48.148;-1.786;2023-02-01T08:58:00;13.53;;;3.90;;
16975;SDS011;8604;48.148;-1.786;2023-02-01T09:00:29;15.20;;;4.33;;
16975;SDS011;8604;48.148;-1.786;2023-02-01T09:02:57;16.33;;;5.53;;
16975;SDS011;8604;48.148;-1.786;2023-02-01T09:05:28;18.23;;;5.90;;
16975;SDS011;8604;48.148;-1.786;2023-02-01T09:08:14;15.57;;;5.80;;
16975;SDS011;8604;48.148;-1.786;2023-02-01T09:10:42;21.07;;;7.77;;
16975;SDS011;8604;48.148;-1.786;2023-02-01T09:13:11;17.30;;;7.00;;
16975;SDS011;8604;48.148;-1.786;2023-02-01T09:15:40;25.33;;;8.00;;
16975;SDS011;8604;48.148;-1.786;2023-02-01T09:18:08;21.23;;;7.70;;
16975;SDS011;8604;48.148;-1.786;2023-02-01T09:20:38;20.97;;;8.77;;
16975;SDS011;8604;48.148;-1.786;2023-02-01T09:23:07;25.70;;;11.07;;
16975;SDS011;8604;48.148;-1.786;2023-02-01T09:25:36;29.03;;;13.53;;
16975;SDS011;8604;48.148;-1.786;2023-02-01T09:28:05;29.60;;;15.43;;
16975;SDS011;8604;48.148;-1.786;2023-02-01T09:30:35;31.07;;;16.43;;
16975;SDS011;8604;48.148;-1.786;2023-02-01T09:33:05;31.03;;;17.20;;
16975;SDS011;8604;48.148;-1.786;2023-02-01T09:35:33;31.47;;;16.30;;
16975;SDS011;8604;48.148;-1.786;2023-02-01T09:38:03;27.30;;;14.83;;
16975;SDS011;8604;48.148;-1.786;2023-02-01T09:40:33;25.90;;;12.57;;
16975;SDS011;8604;48.148;-1.786;2023-02-01T09:43:07;21.43;;;8.47;;
16975;SDS011;8604;48.148;-1.786;2023-02-01T09:45:48;19.63;;;6.10;;
16975;SDS011;8604;48.148;-1.786;2023-02-01T09:48:27;22.23;;;5.53;;
16975;SDS011;8604;48.148;-1.786;2023-02-01T09:51:00;17.47;;;5.00;;
16975;SDS011;8604;48.148;-1.786;2023-02-01T09:53:34;17.67;;;4.67;;
16975;SDS011;8604;48.148;-1.786;2023-02-01T09:56:07;21.17;;;5.27;;
16975;SDS011;8604;48.148;-1.786;2023-02-01T09:58:42;19.87;;;4.80;;
16975;SDS011;8604;48.148;-1.786;2023-02-01T10:01:16;18.97;;;4.63;;
16975;SDS011;8604;48.148;-1.786;2023-02-01T10:03:48;18.80;;;4.87;;
16975;SDS011;8604;48.148;-1.786;2023-02-01T10:06:21;20.57;;;5.03;;
16975;SDS011;8604;48.148;-1.786;2023-02-01T10:09:06;18.53;;;4.47;;
16975;SDS011;8604;48.148;-1.786;2023-02-01T10:11:54;20.37;;;4.57;;
16975;SDS011;8604;48.148;-1.786;2023-02-01T10:14:40;20.53;;;4.87;;
16975;SDS011;8604;48.148;-1.786;2023-02-01T10:17:24;17.13;;;4.60;;
16975;SDS011;8604;48.148;-1.786;2023-02-01T10:20:06;15.43;;;4.60;;
16975;SDS011;8604;48.148;-1.786;2023-02-01T10:22:41;18.53;;;4.77;;
16975;SDS011;8604;48.148;-1.786;2023-02-01T10:25:34;18.43;;;4.97;;
16975;SDS011;8604;48.148;-1.786;2023-02-01T10:28:06;15.87;;;4.40;;
16975;SDS011;8604;48.148;-1.786;2023-02-01T10:30:41;15.40;;;4.63;;
16975;SDS011;8604;48.148;-1.786;2023-02-01T10:33:15;17.73;;;4.87;;
16975;SDS011;8604;48.148;-1.786;2023-02-01T10:35:45;20.67;;;5.80;;
16975;SDS011;8604;48.148;-1.786;2023-02-01T10:38:23;20.17;;;5.10;;
16975;SDS011;8604;48.148;-1.786;2023-02-01T10:40:56;24.90;;;4.93;;
16975;SDS011;8604;48.148;-1.786;2023-02-01T10:43:30;16.43;;;4.13;;
16975;SDS011;8604;48.148;-1.786;2023-02-01T10:46:00;17.30;;;4.43;;
16975;SDS011;8604;48.148;-1.786;2023-02-01T10:48:29;15.77;;;4.17;;
16975;SDS011;8604;48.148;-1.786;2023-02-01T10:51:00;14.80;;;4.40;;
16975;SDS011;8604;48.148;-1.786;2023-02-01T10:53:35;19.07;;;4.60;;
16975;SDS011;8604;48.148;-1.786;2023-02-01T10:56:12;15.63;;;4.47;;
16975;SDS011;8604;48.148;-1.786;2023-02-01T10:58:45;20.50;;;4.97;;
16975;SDS011;8604;48.148;-1.786;2023-02-01T11:01:16;16.90;;;4.73;;
16975;SDS011;8604;48.148;-1.786;2023-02-01T11:03:51;19.93;;;5.00;;
16975;SDS011;8604;48.148;-1.786;2023-02-01T11:06:26;15.33;;;4.33;;
16975;SDS011;8604;48.148;-1.786;2023-02-01T11:08:57;15.57;;;4.70;;
16975;SDS011;8604;48.148;-1.786;2023-02-01T11:11:28;21.33;;;4.60;;
16975;SDS011;8604;48.148;-1.786;2023-02-01T11:13:58;20.33;;;4.57;;
16975;SDS011;8604;48.148;-1.786;2023-02-01T11:16:29;20.67;;;4.77;;
16975;SDS011;8604;48.148;-1.786;2023-02-01T11:19:01;17.00;;;4.77;;
16975;SDS011;8604;48.148;-1.786;2023-02-01T11:21:30;18.77;;;4.60;;
16975;SDS011;8604;48.148;-1.786;2023-02-01T11:24:01;15.00;;;4.60;;
16975;SDS011;8604;48.148;-1.786;2023-02-01T11:26:32;16.73;;;4.30;;
16975;SDS011;8604;48.148;-1.786;2023-02-01T11:29:02;18.27;;;4.10;;
16975;SDS011;8604;48.148;-1.786;2023-02-01T11:31:33;17.47;;;4.87;;
16975;SDS011;8604;48.148;-1.786;2023-02-01T11:34:06;19.50;;;5.13;;
16975;SDS011;8604;48.148;-1.786;2023-02-01T11:36:39;16.77;;;4.57;;
16975;SDS011;8604;48.148;-1.786;2023-02-01T11:39:14;17.40;;;4.63;;
16975;SDS011;8604;48.148;-1.786;2023-02-01T11:42:00;16.33;;;4.60;;
16975;SDS011;8604;48.148;-1.786;2023-02-01T11:44:33;16.87;;;4.57;;
16975;SDS011;8604;48.148;-1.786;2023-02-01T11:47:17;12.47;;;4.00;;
16975;SDS011;8604;48.148;-1.786;2023-02-01T11:49:51;15.53;;;4.23;;
16975;SDS011;8604;48.148;-1.786;2023-02-01T11:52:25;14.67;;;4.33;;
16975;SDS011;8604;48.148;-1.786;2023-02-01T11:58:11;19.67;;;4.70;;
16975;SDS011;8604;48.148;-1.786;2023-02-01T12:00:50;16.97;;;4.13;;
16975;SDS011;8604;48.148;-1.786;2023-02-01T12:03:37;16.87;;;4.23;;
16975;SDS011;8604;48.148;-1.786;2023-02-01T12:06:32;16.47;;;4.17;;
16975;SDS011;8604;48.148;-1.786;2023-02-01T12:09:22;13.83;;;3.63;;
16975;SDS011;8604;48.148;-1.786;2023-02-01T12:12:03;17.83;;;4.07;;
16975;SDS011;8604;48.148;-1.786;2023-02-01T12:14:50;15.03;;;4.07;;
16975;SDS011;8604;48.148;-1.786;2023-02-01T12:20:43;16.33;;;4.40;;
16975;SDS011;8604;48.148;-1.786;2023-02-01T12:23:29;14.90;;;4.03;;
16975;SDS011;8604;48.148;-1.786;2023-02-01T12:26:21;17.07;;;4.30;;
16975;SDS011;8604;48.148;-1.786;2023-02-01T12:32:02;12.63;;;3.67;;
16975;SDS011;8604;48.148;-1.786;2023-02-01T12:34:43;13.77;;;4.00;;
16975;SDS011;8604;48.148;-1.786;2023-02-01T12:37:28;16.90;;;4.67;;
16975;SDS011;8604;48.148;-1.786;2023-02-01T12:40:15;15.07;;;4.07;;
16975;SDS011;8604;48.148;-1.786;2023-02-01T12:42:57;14.07;;;4.03;;
16975;SDS011;8604;48.148;-1.786;2023-02-01T12:45:30;16.07;;;4.30;;
16975;SDS011;8604;48.148;-1.786;2023-02-01T12:50:57;15.60;;;4.07;;
16975;SDS011;8604;48.148;-1.786;2023-02-01T12:53:30;15.13;;;3.93;;
16975;SDS011;8604;48.148;-1.786;2023-02-01T12:56:14;18.10;;;4.77;;
16975;SDS011;8604;48.148;-1.786;2023-02-01T12:58:51;18.90;;;4.10;;
16975;SDS011;8604;48.148;-1.786;2023-02-01T13:01:24;15.93;;;4.00;;
16975;SDS011;8604;48.148;-1.786;2023-02-01T13:04:01;12.83;;;4.07;;
16975;SDS011;8604;48.148;-1.786;2023-02-01T13:06:38;15.70;;;4.30;;
16975;SDS011;8604;48.148;-1.786;2023-02-01T13:09:14;16.97;;;4.20;;
16975;SDS011;8604;48.148;-1.786;2023-02-01T13:11:49;22.03;;;4.80;;
16975;SDS011;8604;48.148;-1.786;2023-02-01T13:14:24;12.80;;;3.97;;
16975;SDS011;8604;48.148;-1.786;2023-02-01T13:16:58;17.80;;;4.33;;
16975;SDS011;8604;48.148;-1.786;2023-02-01T13:19:33;19.13;;;4.40;;
16975;SDS011;8604;48.148;-1.786;2023-02-01T13:22:10;17.43;;;4.90;;
16975;SDS011;8604;48.148;-1.786;2023-02-01T13:24:44;17.90;;;4.37;;
16975;SDS011;8604;48.148;-1.786;2023-02-01T13:27:17;17.33;;;4.90;;
16975;SDS011;8604;48.148;-1.786;2023-02-01T13:29:48;19.53;;;4.93;;
16975;SDS011;8604;48.148;-1.786;2023-02-01T13:35:53;19.27;;;4.83;;
16975;SDS011;8604;48.148;-1.786;2023-02-01T13:38:46;19.40;;;4.57;;
16975;SDS011;8604;48.148;-1.786;2023-02-01T13:41:39;22.53;;;5.10;;
16975;SDS011;8604;48.148;-1.786;2023-02-01T13:44:19;19.07;;;4.57;;
16975;SDS011;8604;48.148;-1.786;2023-02-01T13:46:54;17.67;;;4.80;;
16975;SDS011;8604;48.148;-1.786;2023-02-01T13:49:27;20.40;;;4.93;;
16975;SDS011;8604;48.148;-1.786;2023-02-01T13:52:00;18.03;;;5.27;;
16975;SDS011;8604;48.148;-1.786;2023-02-01T13:54:29;16.70;;;4.63;;
16975;SDS011;8604;48.148;-1.786;2023-02-01T13:56:59;19.33;;;4.80;;
16975;SDS011;8604;48.148;-1.786;2023-02-01T13:59:37;14.97;;;4.33;;
16975;SDS011;8604;48.148;-1.786;2023-02-01T14:08:37;17.97;;;4.83;;
16975;SDS011;8604;48.148;-1.786;2023-02-01T14:11:35;15.90;;;4.97;;
16975;SDS011;8604;48.148;-1.786;2023-02-01T14:23:19;18.00;;;4.93;;
16975;SDS011;8604;48.148;-1.786;2023-02-01T14:31:50;17.80;;;4.70;;
16975;SDS011;8604;48.148;-1.786;2023-02-01T14:34:28;17.60;;;4.53;;
16975;SDS011;8604;48.148;-1.786;2023-02-01T14:37:00;21.67;;;5.40;;
16975;SDS011;8604;48.148;-1.786;2023-02-01T14:39:33;15.43;;;5.43;;
16975;SDS011;8604;48.148;-1.786;2023-02-01T14:42:14;18.13;;;5.50;;
16975;SDS011;8604;48.148;-1.786;2023-02-01T14:44:48;17.73;;;5.20;;
16975;SDS011;8604;48.148;-1.786;2023-02-01T14:47:27;20.43;;;5.47;;
16975;SDS011;8604;48.148;-1.786;2023-02-01T14:50:11;17.63;;;5.30;;
16975;SDS011;8604;48.148;-1.786;2023-02-01T14:52:47;13.57;;;4.47;;
16975;SDS011;8604;48.148;-1.786;2023-02-01T14:55:21;13.67;;;4.40;;
16975;SDS011;8604;48.148;-1.786;2023-02-01T14:57:57;15.70;;;4.57;;
16975;SDS011;8604;48.148;-1.786;2023-02-01T15:00:30;18.93;;;4.67;;
16975;SDS011;8604;48.148;-1.786;2023-02-01T15:03:15;18.73;;;4.73;;
16975;SDS011;8604;48.148;-1.786;2023-02-01T15:06:01;18.13;;;4.73;;
16975;SDS011;8604;48.148;-1.786;2023-02-01T15:08:33;13.97;;;4.43;;
16975;SDS011;8604;48.148;-1.786;2023-02-01T15:11:06;16.13;;;4.27;;
16975;SDS011;8604;48.148;-1.786;2023-02-01T15:13:48;15.50;;;4.87;;
16975;SDS011;8604;48.148;-1.786;2023-02-01T15:16:20;13.63;;;4.23;;
16975;SDS011;8604;48.148;-1.786;2023-02-01T15:18:50;13.30;;;4.30;;
16975;SDS011;8604;48.148;-1.786;2023-02-01T15:21:46;13.87;;;4.50;;
16975;SDS011;8604;48.148;-1.786;2023-02-01T15:24:19;15.13;;;4.30;;
16975;SDS011;8604;48.148;-1.786;2023-02-01T15:26:49;15.40;;;4.60;;
16975;SDS011;8604;48.148;-1.786;2023-02-01T15:29:20;13.80;;;4.30;;
16975;SDS011;8604;48.148;-1.786;2023-02-01T15:31:52;16.13;;;4.87;;
16975;SDS011;8604;48.148;-1.786;2023-02-01T15:34:33;16.07;;;4.77;;
16975;SDS011;8604;48.148;-1.786;2023-02-01T15:37:14;20.17;;;5.20;;
16975;SDS011;8604;48.148;-1.786;2023-02-01T15:42:48;17.07;;;5.10;;
16975;SDS011;8604;48.148;-1.786;2023-02-01T15:45:24;20.67;;;6.20;;
16975;SDS011;8604;48.148;-1.786;2023-02-01T15:47:56;19.63;;;5.47;;
16975;SDS011;8604;48.148;-1.786;2023-02-01T15:50:26;15.57;;;5.60;;
16975;SDS011;8604;48.148;-1.786;2023-02-01T15:52:59;16.87;;;4.87;;
16975;SDS011;8604;48.148;-1.786;2023-02-01T15:55:30;15.40;;;5.60;;
16975;SDS011;8604;48.148;-1.786;2023-02-01T15:58:07;16.27;;;4.70;;
16975;SDS011;8604;48.148;-1.786;2023-02-01T16:00:43;15.93;;;4.50;;
16975;SDS011;8604;48.148;-1.786;2023-02-01T16:03:25;16.40;;;4.70;;
16975;SDS011;8604;48.148;-1.786;2023-02-01T16:05:56;23.20;;;9.00;;
16975;SDS011;8604;48.148;-1.786;2023-02-01T16:08:27;18.87;;;10.07;;
16975;SDS011;8604;48.148;-1.786;2023-02-01T16:11:13;19.50;;;11.10;;
16975;SDS011;8604;48.148;-1.786;2023-02-01T16:13:48;19.47;;;10.23;;
16975;SDS011;8604;48.148;-1.786;2023-02-01T16:16:18;17.33;;;9.33;;